Time;durP1;ratioP1;P1;durP2;ratioP2;P2;SDS_P1;SDS_P2;PMS_P1;PMS_P2;Temp;Humidity;BMP_temperature;BMP_pressure;BME280_temperature;BME280_humidity;BME280_pressure;Samples;Min_cycle;Max_cycle;Signal;HPM_P1;HPM_P2
2024/01/28 00:01:59;;;;;;;24.55;18.90;;;;;;;0.63;100.00;97632.03;5066443;28;20036;-67
2024/01/28 00:04:25;;;;;;;27.42;17.77;;;;;;;0.58;100.00;97624.34;5069334;28;20036;-67
2024/01/28 00:06:50;;;;;;;23.33;17.63;;;;;;;0.62;100.00;97630.34;5071378;28;20048;-67
2024/01/28 00:09:15;;;;;;;29.65;19.25;;;;;;;0.60;100.00;97625.16;5069176;28;20028;-67
2024/01/28 00:11:42;;;;;;;23.02;18.13;;;;;;;0.57;100.00;97628.69;5068531;28;20463;-67
2024/01/28 00:14:09;;;;;;;30.35;20.38;;;;;;;0.56;100.00;97632.19;5063986;28;20035;-67
2024/01/28 00:16:34;;;;;;;35.00;25.23;;;;;;;0.59;100.00;97627.81;5065074;28;20082;-67
2024/01/28 00:19:00;;;;;;;29.70;21.05;;;;;;;0.62;100.00;97626.00;5065008;28;20028;-67
2024/01/28 00:21:26;;;;;;;32.22;23.23;;;;;;;0.55;100.00;97625.28;5073688;28;20027;-67
2024/01/28 00:23:51;;;;;;;32.67;23.77;;;;;;;0.55;100.00;97620.09;5073708;28;20036;-67
2024/01/28 00:26:17;;;;;;;36.13;25.15;;;;;;;0.47;100.00;97626.34;5064532;28;20039;-67
2024/01/28 00:28:42;;;;;;;25.80;18.27;;;;;;;0.40;100.00;97621.25;5072053;28;20017;-67
2024/01/28 00:31:09;;;;;;;28.85;21.08;;;;;;;0.38;100.00;97619.59;5073379;28;20036;-67
2024/01/28 00:33:35;;;;;;;29.00;20.58;;;;;;;0.43;100.00;97615.16;5069477;28;20494;-67
2024/01/28 00:36:00;;;;;;;33.50;22.05;;;;;;;0.43;100.00;97609.97;5070925;28;20089;-68
2024/01/28 00:38:31;;;;;;;26.35;19.85;;;;;;;0.37;100.00;97615.31;5068466;28;20029;-67
2024/01/28 00:40:57;;;;;;;33.78;22.13;;;;;;;0.29;100.00;97620.63;5062595;28;20555;-66
2024/01/28 00:43:22;;;;;;;47.15;29.77;;;;;;;0.24;100.00;97623.31;5072371;28;20033;-67
2024/01/28 00:45:48;;;;;;;72.97;38.33;;;;;;;0.23;100.00;97629.38;5073130;28;20474;-67
2024/01/28 00:48:14;;;;;;;87.53;46.63;;;;;;;0.20;100.00;97624.25;5066409;28;20136;-67
2024/01/28 00:50:39;;;;;;;57.47;32.10;;;;;;;0.22;100.00;97622.50;5071405;28;20396;-67
2024/01/28 00:53:04;;;;;;;34.33;20.67;;;;;;;0.20;100.00;97629.44;5069029;28;20025;-67
2024/01/28 00:55:31;;;;;;;31.90;19.33;;;;;;;0.22;100.00;97619.91;5067187;28;20059;-67
2024/01/28 00:57:57;;;;;;;40.60;23.15;;;;;;;0.24;100.00;97615.53;5066758;28;20702;-67
2024/01/28 01:00:23;;;;;;;30.58;19.08;;;;;;;0.24;100.00;97617.28;5061396;28;20382;-67
2024/01/28 01:02:48;;;;;;;25.25;16.75;;;;;;;0.27;100.00;97610.28;5068971;28;20039;-67
2024/01/28 01:05:14;;;;;;;27.45;16.25;;;;;;;0.23;100.00;97613.84;5065963;28;20032;-67
2024/01/28 01:07:39;;;;;;;24.55;14.98;;;;;;;0.23;100.00;97613.00;5061671;28;20028;-67
2024/01/28 01:10:05;;;;;;;19.40;13.20;;;;;;;0.21;100.00;97609.56;5067941;28;20024;-67
2024/01/28 01:12:30;;;;;;;18.33;13.02;;;;;;;0.20;100.00;97611.31;5072874;28;20126;-67
2024/01/28 01:14:56;;;;;;;17.17;12.52;;;;;;;0.17;100.00;97619.16;5069104;28;20496;-67
2024/01/28 01:17:21;;;;;;;16.50;12.05;;;;;;;0.13;100.00;97620.09;5073000;28;20048;-67
2024/01/28 01:19:46;;;;;;;16.35;11.32;;;;;;;0.13;100.00;97622.69;5069518;28;20024;-66
2024/01/28 01:22:12;;;;;;;18.80;13.15;;;;;;;0.10;100.00;97620.13;5073803;28;20108;-66
2024/01/28 01:24:37;;;;;;;15.82;12.50;;;;;;;0.08;100.00;97616.72;5065321;28;20051;-69
2024/01/28 01:27:03;;;;;;;20.70;11.93;;;;;;;0.07;100.00;97612.41;5075800;28;20059;-68
2024/01/28 01:29:28;;;;;;;17.20;12.57;;;;;;;0.05;100.00;97609.00;5071462;28;20059;-68
2024/01/28 01:31:54;;;;;;;16.73;12.10;;;;;;;0.01;100.00;97610.81;5071035;28;20054;-68
2024/01/28 01:34:20;;;;;;;16.63;12.07;;;;;;;0.01;100.00;97608.25;5065741;28;20400;-68
2024/01/28 01:36:45;;;;;;;20.33;13.40;;;;;;;-0.02;100.00;97603.09;5067448;28;20040;-68
2024/01/28 01:39:12;;;;;;;18.33;14.15;;;;;;;-0.11;100.00;97613.63;5075584;28;20504;-67
2024/01/28 01:41:37;;;;;;;15.23;10.65;;;;;;;-0.11;100.00;97624.88;5069632;28;20517;-67
2024/01/28 01:44:03;;;;;;;10.38;9.27;;;;;;;-0.07;100.00;97621.31;5070023;28;20028;-67
2024/01/28 01:46:29;;;;;;;9.70;8.52;;;;;;;-0.07;100.00;97610.09;5071869;28;20017;-67
2024/01/28 01:48:56;;;;;;;11.13;8.77;;;;;;;-0.11;100.00;97616.22;5073491;28;20016;-67
2024/01/28 01:51:23;;;;;;;11.43;8.07;;;;;;;-0.09;100.00;97620.50;5069676;28;20029;-68
2024/01/28 01:53:49;;;;;;;10.60;8.30;;;;;;;-0.08;100.00;97610.97;5073808;28;20078;-67
2024/01/28 01:56:15;;;;;;;9.90;6.78;;;;;;;-0.15;100.00;97613.69;5068998;28;20116;-67
2024/01/28 01:58:42;;;;;;;9.10;6.70;;;;;;;-0.16;100.00;97608.53;5057233;28;20029;-67
2024/01/28 02:01:08;;;;;;;8.98;7.97;;;;;;;-0.18;100.00;97607.72;5069735;28;20035;-67
2024/01/28 02:03:33;;;;;;;9.05;7.65;;;;;;;-0.15;100.00;97607.66;5074869;28;20020;-68
2024/01/28 02:05:59;;;;;;;12.73;10.10;;;;;;;-0.10;100.00;97604.97;5070247;28;20025;-67
2024/01/28 02:08:24;;;;;;;18.75;14.32;;;;;;;-0.09;100.00;97604.97;5070823;28;20024;-68
2024/01/28 02:10:50;;;;;;;16.92;11.55;;;;;;;-0.07;100.00;97610.09;5072441;28;20017;-68
2024/01/28 02:13:16;;;;;;;11.57;9.23;;;;;;;-0.06;100.00;97606.63;5073777;28;20439;-68
2024/01/28 02:15:41;;;;;;;9.15;7.88;;;;;;;-0.12;100.00;97597.22;5074271;28;20064;-67
2024/01/28 02:18:07;;;;;;;12.73;8.77;;;;;;;-0.16;100.00;97603.34;5069047;28;20393;-67
2024/01/28 02:20:32;;;;;;;15.93;10.02;;;;;;;-0.19;100.00;97601.69;5068839;28;20554;-68
2024/01/28 02:22:58;;;;;;;15.23;11.50;;;;;;;-0.21;100.00;97602.59;5072813;28;20063;-67
2024/01/28 02:25:23;;;;;;;12.07;9.55;;;;;;;-0.21;100.00;97595.69;5062501;28;20424;-68
2024/01/28 02:27:49;;;;;;;11.57;9.43;;;;;;;-0.26;100.00;97594.91;5072223;28;20017;-68
2024/01/28 02:30:15;;;;;;;11.75;9.13;;;;;;;-0.27;100.00;97597.53;5066310;28;20029;-68
2024/01/28 02:32:51;;;;;;;13.88;9.07;;;;;;;-0.29;100.00;97594.97;5075051;28;20016;-68
2024/01/28 02:35:17;;;;;;;10.40;8.07;;;;;;;-0.30;100.00;97588.94;5056878;28;20505;-67
2024/01/28 02:37:42;;;;;;;16.15;12.00;;;;;;;-0.26;100.00;97596.66;5068317;28;20025;-68
2024/01/28 02:40:08;;;;;;;13.55;11.50;;;;;;;-0.30;100.00;97594.13;5071181;28;20623;-68
2024/01/28 02:42:34;;;;;;;15.23;10.90;;;;;;;-0.34;100.00;97592.44;5062842;28;20053;-67
2024/01/28 02:45:00;;;;;;;13.35;12.00;;;;;;;-0.34;100.00;97586.44;5068315;28;20494;-67
2024/01/28 02:47:25;;;;;;;15.75;11.13;;;;;;;-0.38;100.00;97590.81;5066402;28;20020;-67
2024/01/28 02:49:50;;;;;;;15.52;12.75;;;;;;;-0.44;100.00;97583.16;5068648;28;20576;-67
2024/01/28 02:52:16;;;;;;;14.18;11.82;;;;;;;-0.42;100.00;97581.41;5064092;28;20642;-68
2024/01/28 02:54:41;;;;;;;14.48;12.23;;;;;;;-0.42;100.00;97588.31;5066317;28;20051;-67
2024/01/28 02:57:07;;;;;;;11.18;9.98;;;;;;;-0.45;100.00;97578.88;5075079;28;20024;-68
2024/01/28 02:59:32;;;;;;;13.05;10.75;;;;;;;-0.55;100.00;97580.75;5061357;28;20032;-67
2024/01/28 03:01:57;;;;;;;12.07;8.93;;;;;;;-0.61;100.00;97566.19;5070125;28;20029;-67
2024/01/28 03:04:23;;;;;;;10.45;9.15;;;;;;;-0.60;100.00;97564.47;5074065;28;20024;-68
2024/01/28 03:06:48;;;;;;;10.35;6.85;;;;;;;-0.59;100.00;97567.00;5071832;28;20024;-67
2024/01/28 03:09:13;;;;;;;7.53;6.72;;;;;;;-0.56;100.00;97575.59;5062827;28;20020;-67
2024/01/28 03:11:39;;;;;;;10.20;9.20;;;;;;;-0.55;100.00;97572.13;5069844;28;20560;-68
2024/01/28 03:14:06;;;;;;;9.88;8.85;;;;;;;-0.57;100.00;97574.75;5068205;28;20029;-67
2024/01/28 03:16:32;;;;;;;9.13;6.80;;;;;;;-0.64;100.00;97576.59;5069717;28;20025;-68
2024/01/28 03:18:58;;;;;;;9.02;6.60;;;;;;;-0.65;100.00;97569.72;5061089;28;20021;-67
2024/01/28 03:21:23;;;;;;;8.43;7.55;;;;;;;-0.67;100.00;97580.97;5062627;28;20094;-67
2024/01/28 03:23:49;;;;;;;7.03;6.32;;;;;;;-0.62;100.00;97569.66;5069153;28;20028;-67
2024/01/28 03:26:14;;;;;;;10.75;7.05;;;;;;;-0.62;100.00;97572.25;5061721;28;20166;-67
2024/01/28 03:28:41;;;;;;;10.48;8.27;;;;;;;-0.58;100.00;97575.66;5063454;28;21480;-68
2024/01/28 03:31:06;;;;;;;8.32;6.75;;;;;;;-0.50;100.00;97576.34;5071093;28;20099;-67
2024/01/28 03:33:34;;;;;;;7.97;7.18;;;;;;;-0.49;100.00;97577.22;5068503;28;20429;-68
2024/01/28 03:35:59;;;;;;;8.38;6.97;;;;;;;-0.59;100.00;97566.19;5065378;28;20036;-67
2024/01/28 03:38:24;;;;;;;7.90;7.10;;;;;;;-0.60;100.00;97577.41;5066519;28;20051;-67
2024/01/28 03:40:50;;;;;;;10.57;7.70;;;;;;;-0.60;100.00;97572.22;5066873;28;20028;-67
2024/01/28 03:43:15;;;;;;;9.05;6.97;;;;;;;-0.59;100.00;97572.19;5068005;28;20595;-67
2024/01/28 03:45:41;;;;;;;9.38;7.65;;;;;;;-0.61;100.00;97573.94;5069263;28;20082;-68
2024/01/28 03:48:06;;;;;;;8.63;7.15;;;;;;;-0.64;100.00;97579.19;5069741;28;20021;-67
2024/01/28 03:50:32;;;;;;;8.55;7.63;;;;;;;-0.67;100.00;97578.38;5069439;28;20480;-67
2024/01/28 03:52:57;;;;;;;9.05;6.95;;;;;;;-0.66;100.00;97575.78;5066245;28;20174;-68
2024/01/28 03:55:23;;;;;;;9.80;6.32;;;;;;;-0.69;100.00;97580.13;5069177;28;20058;-67
2024/01/28 03:57:48;;;;;;;7.68;6.20;;;;;;;-0.71;100.00;97577.59;5072729;28;20024;-67
2024/01/28 04:00:14;;;;;;;9.25;6.85;;;;;;;-0.75;100.00;97574.19;5073864;28;20454;-68
2024/01/28 04:02:41;;;;;;;11.10;7.05;;;;;;;-0.77;100.00;97572.53;5069479;28;20051;-67
2024/01/28 04:05:07;;;;;;;7.50;6.75;;;;;;;-0.76;100.00;97580.25;5072578;28;20029;-68
2024/01/28 04:07:32;;;;;;;8.75;6.60;;;;;;;-0.75;100.00;97575.94;5065397;28;20021;-68
2024/01/28 04:09:57;;;;;;;8.20;6.45;;;;;;;-0.77;100.00;97564.78;5057974;28;20012;-67
2024/01/28 04:12:23;;;;;;;6.53;5.82;;;;;;;-0.79;100.00;97561.31;5069811;28;20080;-68
2024/01/28 04:14:49;;;;;;;8.00;6.25;;;;;;;-0.83;100.00;97562.25;5067587;28;20025;-67
2024/01/28 04:17:14;;;;;;;7.50;6.80;;;;;;;-0.89;100.00;97566.66;5068488;28;20035;-67
2024/01/28 04:19:39;;;;;;;6.88;6.18;;;;;;;-0.90;100.00;97561.50;5074202;28;20035;-67
2024/01/28 04:22:08;;;;;;;7.43;5.88;;;;;;;-0.88;100.00;97559.78;5066499;28;20025;-68
2024/01/28 04:24:33;;;;;;;7.30;6.60;;;;;;;-0.87;100.00;97551.13;5062269;28;20114;-68
2024/01/28 04:26:59;;;;;;;5.93;5.07;;;;;;;-0.93;100.00;97557.25;5067901;28;20037;-68
2024/01/28 04:29:24;;;;;;;6.30;5.65;;;;;;;-0.99;100.00;97549.59;5051223;28;20051;-68
2024/01/28 04:31:50;;;;;;;6.00;5.22;;;;;;;-0.93;100.00;97549.50;5064493;28;20414;-67
2024/01/28 04:34:15;;;;;;;6.00;5.20;;;;;;;-0.91;100.00;97539.97;5063413;28;20029;-68
2024/01/28 04:36:41;;;;;;;5.35;4.85;;;;;;;-0.89;100.00;97548.56;5061655;28;20102;-67
2024/01/28 04:39:07;;;;;;;5.18;4.68;;;;;;;-0.92;100.00;97543.44;5066581;28;20035;-67
2024/01/28 04:41:33;;;;;;;7.10;5.72;;;;;;;-0.90;100.00;97536.50;5060900;28;20113;-67
2024/01/28 04:43:58;;;;;;;7.60;6.45;;;;;;;-0.88;100.00;97541.69;5058623;28;20021;-67
2024/01/28 04:46:23;;;;;;;5.55;5.00;;;;;;;-0.90;100.00;97530.47;5067950;28;20086;-67
2024/01/28 04:48:49;;;;;;;5.45;4.95;;;;;;;-0.93;100.00;97539.16;5068569;28;20009;-68
2024/01/28 04:51:15;;;;;;;8.13;7.15;;;;;;;-1.00;100.00;97534.94;5063125;28;20024;-68
2024/01/28 04:53:40;;;;;;;7.07;6.38;;;;;;;-0.98;100.00;97532.34;5069557;28;20025;-67
2024/01/28 04:56:06;;;;;;;7.15;5.88;;;;;;;-0.96;100.00;97531.47;5067343;28;20021;-67
2024/01/28 04:58:31;;;;;;;8.32;6.50;;;;;;;-0.98;100.00;97519.41;5068769;28;20107;-67
2024/01/28 05:00:57;;;;;;;9.00;6.80;;;;;;;-0.96;100.00;97521.09;5065046;28;20024;-67
2024/01/28 05:03:22;;;;;;;7.13;6.40;;;;;;;-0.98;100.00;97516.84;5072848;28;20016;-67
2024/01/28 05:05:47;;;;;;;7.32;5.82;;;;;;;-1.01;100.00;97525.47;5070366;28;20029;-67
2024/01/28 05:08:13;;;;;;;7.07;6.38;;;;;;;-1.04;100.00;97529.00;5074392;28;20056;-67
2024/01/28 05:10:39;;;;;;;6.60;6.00;;;;;;;-1.04;100.00;97525.53;5060977;28;20024;-67
2024/01/28 05:13:04;;;;;;;9.15;6.18;;;;;;;-1.06;100.00;97524.72;5070080;28;20066;-67
2024/01/28 05:15:31;;;;;;;6.38;5.53;;;;;;;-1.04;100.00;97533.28;5070488;28;20033;-67
2024/01/28 05:17:56;;;;;;;6.68;6.03;;;;;;;-1.06;100.00;97535.06;5073392;28;20135;-67
2024/01/28 05:20:21;;;;;;;9.25;7.50;;;;;;;-1.11;100.00;97532.53;5071186;28;20052;-67
2024/01/28 05:22:47;;;;;;;13.20;10.00;;;;;;;-1.10;100.00;97531.69;5066899;28;20032;-67
2024/01/28 05:25:13;;;;;;;12.15;8.82;;;;;;;-1.05;100.00;97536.75;5068948;28;20605;-67
2024/01/28 05:27:38;;;;;;;12.48;9.02;;;;;;;-1.07;100.00;97543.69;5061712;28;20486;-67
2024/01/28 05:30:05;;;;;;;12.93;8.93;;;;;;;-1.09;100.00;97548.03;5070612;28;20094;-67
2024/01/28 05:32:30;;;;;;;10.05;8.50;;;;;;;-1.11;100.00;97549.78;5073655;28;20024;-67
2024/01/28 05:34:56;;;;;;;9.45;8.30;;;;;;;-1.11;100.00;97553.22;5066355;28;20033;-67
2024/01/28 05:37:22;;;;;;;10.93;7.80;;;;;;;-1.17;100.00;97551.59;5058012;28;20029;-67
2024/01/28 05:39:47;;;;;;;8.40;7.30;;;;;;;-1.14;100.00;97552.44;5067300;28;20063;-67
2024/01/28 05:42:13;;;;;;;9.48;7.43;;;;;;;-1.16;100.00;97555.91;5068043;28;20049;-67
2024/01/28 05:44:38;;;;;;;8.60;7.63;;;;;;;-1.11;100.00;97558.38;5069276;28;20559;-67
2024/01/28 05:47:04;;;;;;;9.43;8.43;;;;;;;-1.10;100.00;97556.66;5061797;28;20025;-68
2024/01/28 05:49:29;;;;;;;9.60;8.60;;;;;;;-1.11;100.00;97560.97;5066738;28;20040;-67
2024/01/28 05:51:54;;;;;;;12.32;9.13;;;;;;;-1.12;100.00;97563.59;5069229;28;20033;-67
2024/01/28 05:54:21;;;;;;;9.45;7.45;;;;;;;-1.14;100.00;97560.19;5068675;28;20032;-67
2024/01/28 05:56:46;;;;;;;8.88;7.35;;;;;;;-1.17;100.00;97564.53;5068432;28;20020;-67
2024/01/28 05:59:11;;;;;;;10.15;7.55;;;;;;;-1.20;100.00;97556.81;5071013;28;20031;-67
2024/01/28 06:01:37;;;;;;;6.93;6.32;;;;;;;-1.22;100.00;97558.56;5062499;28;20059;-67
2024/01/28 06:04:03;;;;;;;8.95;8.07;;;;;;;-1.28;100.00;97556.06;5071540;28;20024;-67
2024/01/28 06:06:29;;;;;;;8.77;7.97;;;;;;;-1.31;100.00;97549.22;5069433;28;20031;-67
2024/01/28 06:08:54;;;;;;;7.80;6.90;;;;;;;-1.33;100.00;97565.63;5070812;28;20013;-67
2024/01/28 06:11:19;;;;;;;7.60;6.90;;;;;;;-1.32;100.00;97560.44;5057751;28;20075;-67
2024/01/28 06:13:45;;;;;;;8.95;7.15;;;;;;;-1.31;100.00;97557.00;5070661;28;20031;-67
2024/01/28 06:16:10;;;;;;;7.13;5.80;;;;;;;-1.28;100.00;97556.06;5058565;28;20017;-67
2024/01/28 06:18:43;;;;;;;8.55;6.75;;;;;;;-1.26;100.00;97558.66;5071573;28;20433;-67
2024/01/28 06:21:09;;;;;;;7.47;6.78;;;;;;;-1.23;100.00;97561.19;5072937;28;20039;-67
2024/01/28 06:23:34;;;;;;;8.25;7.45;;;;;;;-1.21;100.00;97557.72;5060870;28;20025;-67
2024/01/28 06:25:59;;;;;;;11.70;7.45;;;;;;;-1.22;100.00;97560.28;5067442;28;20504;-67
2024/01/28 06:28:25;;;;;;;10.43;7.88;;;;;;;-1.24;100.00;97555.13;5059605;28;20087;-67
2024/01/28 06:30:50;;;;;;;8.05;7.25;;;;;;;-1.28;100.00;97558.66;5059654;28;20025;-67
2024/01/28 06:33:16;;;;;;;9.43;7.03;;;;;;;-1.27;100.00;97547.44;5070456;28;20411;-67
2024/01/28 06:35:41;;;;;;;7.00;6.40;;;;;;;-1.31;100.00;97550.94;5056873;28;20033;-67
2024/01/28 06:38:06;;;;;;;7.55;6.88;;;;;;;-1.32;100.00;97551.81;5069236;28;20078;-67
2024/01/28 06:40:32;;;;;;;7.03;6.32;;;;;;;-1.32;100.00;97544.06;5068005;28;20025;-67
2024/01/28 06:42:57;;;;;;;5.97;5.38;;;;;;;-1.27;100.00;97550.03;5070782;28;20402;-67
2024/01/28 06:45:22;;;;;;;8.50;7.70;;;;;;;-1.27;100.00;97544.84;5073583;28;20028;-67
2024/01/28 06:47:49;;;;;;;12.43;7.03;;;;;;;-1.33;100.00;97551.00;5068772;28;20017;-67
2024/01/28 06:50:15;;;;;;;8.05;7.30;;;;;;;-1.33;100.00;97552.72;5059292;28;20025;-68
2024/01/28 06:52:42;;;;;;;7.88;7.07;;;;;;;-1.36;100.00;97548.44;5062723;28;20028;-67
2024/01/28 06:55:08;;;;;;;8.25;7.55;;;;;;;-1.34;100.00;97545.84;5064730;28;20017;-67
2024/01/28 06:57:34;;;;;;;17.40;12.23;;;;;;;-1.38;100.00;97547.59;5070920;28;20032;-67
2024/01/28 06:59:59;;;;;;;15.82;13.02;;;;;;;-1.41;100.00;97549.41;5071375;28;20013;-68
2024/01/28 07:02:25;;;;;;;11.75;9.20;;;;;;;-1.47;100.00;97546.00;5058748;28;20024;-67
2024/01/28 07:04:51;;;;;;;11.38;10.35;;;;;;;-1.48;100.00;97540.88;5063988;28;20028;-67
2024/01/28 07:07:16;;;;;;;11.23;10.13;;;;;;;-1.45;100.00;97549.41;5065428;28;20019;-67
2024/01/28 07:09:41;;;;;;;11.35;10.25;;;;;;;-1.46;100.00;97547.69;5063399;28;20102;-67
2024/01/28 07:12:08;;;;;;;10.98;8.85;;;;;;;-1.44;100.00;97539.94;5073801;28;20023;-67
2024/01/28 07:14:34;;;;;;;10.43;9.32;;;;;;;-1.44;100.00;97550.28;5075815;28;20531;-68
2024/01/28 07:16:59;;;;;;;10.63;9.60;;;;;;;-1.46;100.00;97544.28;5061016;28;20103;-67
2024/01/28 07:19:25;;;;;;;9.90;8.07;;;;;;;-1.41;100.00;97555.41;5066378;28;20055;-67
2024/01/28 07:21:51;;;;;;;10.75;7.03;;;;;;;-1.34;100.00;97556.16;5070353;28;20021;-67
2024/01/28 07:24:17;;;;;;;8.02;7.18;;;;;;;-1.33;100.00;97548.41;5065132;28;20036;-68
2024/01/28 07:26:43;;;;;;;8.68;7.93;;;;;;;-1.34;100.00;97551.84;5060380;28;20017;-67
2024/01/28 07:29:09;;;;;;;10.05;8.98;;;;;;;-1.31;100.00;97557.00;5063404;28;20021;-67
2024/01/28 07:31:34;;;;;;;18.00;9.82;;;;;;;-1.25;100.00;97560.34;5071348;28;20516;-67
2024/01/28 07:34:01;;;;;;;11.15;10.00;;;;;;;-1.24;100.00;97569.81;5069391;28;20024;-68
2024/01/28 07:36:29;;;;;;;16.60;10.63;;;;;;;-1.21;100.00;97562.00;5055515;28;20045;-67
2024/01/28 07:38:54;;;;;;;12.25;10.73;;;;;;;-1.21;100.00;97557.72;5061186;28;20050;-67
2024/01/28 07:41:19;;;;;;;15.35;11.98;;;;;;;-1.20;100.00;97561.13;5071286;28;20490;-67
2024/01/28 07:43:45;;;;;;;21.67;16.25;;;;;;;-1.13;100.00;97556.72;5055210;28;20032;-67
2024/01/28 07:46:10;;;;;;;28.13;19.27;;;;;;;-1.19;100.00;97552.50;5066435;28;20075;-67
2024/01/28 07:48:36;;;;;;;29.15;18.80;;;;;;;-1.20;100.00;97555.97;5055595;28;20017;-69
2024/01/28 07:51:02;;;;;;;25.90;18.65;;;;;;;-1.16;100.00;97545.56;5057530;28;20054;-68
2024/01/28 07:53:28;;;;;;;31.73;15.07;;;;;;;-1.19;100.00;97555.94;5069510;28;20035;-68
2024/01/28 07:55:53;;;;;;;14.30;11.40;;;;;;;-1.11;100.00;97550.63;5059455;28;20445;-68
2024/01/28 07:58:19;;;;;;;19.85;12.95;;;;;;;-1.09;100.00;97546.31;5059208;28;20091;-67
2024/01/28 08:00:44;;;;;;;25.13;19.67;;;;;;;-1.05;100.00;97541.94;5059073;28;20028;-66
2024/01/28 08:03:09;;;;;;;26.40;21.10;;;;;;;-1.03;100.00;97547.94;5055269;28;20052;-66
2024/01/28 08:05:35;;;;;;;25.27;21.95;;;;;;;-1.01;100.00;97541.88;5058124;28;20035;-68
2024/01/28 08:08:00;;;;;;;29.77;22.52;;;;;;;-0.96;100.00;97546.09;5058742;28;20138;-68
2024/01/28 08:10:26;;;;;;;30.40;22.30;;;;;;;-0.94;100.00;97541.75;5069215;28;20052;-70
2024/01/28 08:12:52;;;;;;;26.38;20.52;;;;;;;-0.98;100.00;97548.72;5064884;28;20089;-69
2024/01/28 08:15:17;;;;;;;27.55;20.92;;;;;;;-0.97;100.00;97541.81;5070501;28;20016;-69
2024/01/28 08:17:44;;;;;;;30.73;20.67;;;;;;;-0.97;100.00;97549.56;5063105;28;20133;-69
2024/01/28 08:20:10;;;;;;;25.98;20.35;;;;;;;-1.00;100.00;97540.13;5061046;28;20025;-69
2024/01/28 08:22:35;;;;;;;24.67;20.02;;;;;;;-0.97;100.00;97545.25;5080983;28;20491;-69
2024/01/28 08:25:01;;;;;;;26.50;20.08;;;;;;;-0.95;100.00;97548.69;5058203;28;20569;-69
2024/01/28 08:27:26;;;;;;;24.95;19.17;;;;;;;-0.96;100.00;97551.28;5069509;28;20020;-70
2024/01/28 08:29:51;;;;;;;27.00;19.90;;;;;;;-0.96;100.00;97541.78;5058331;28;20041;-69
2024/01/28 08:32:17;;;;;;;30.63;25.23;;;;;;;-0.90;100.00;97543.41;5054930;28;20100;-69
2024/01/28 08:34:42;;;;;;;26.25;23.00;;;;;;;-0.93;100.00;97543.47;5057611;28;20031;-70
2024/01/28 08:37:08;;;;;;;33.90;23.45;;;;;;;-0.95;100.00;97532.28;5068598;28;20079;-70
2024/01/28 08:39:33;;;;;;;34.28;26.20;;;;;;;-0.92;100.00;97534.81;5066475;28;20436;-68
2024/01/28 08:41:59;;;;;;;34.78;26.65;;;;;;;-0.90;100.00;97536.50;5063060;28;20079;-69
2024/01/28 08:44:25;;;;;;;33.20;25.42;;;;;;;-0.83;100.00;97539.00;5071862;28;20033;-70
2024/01/28 08:46:51;;;;;;;33.60;26.65;;;;;;;-0.81;100.00;97532.91;5072576;28;20032;-70
2024/01/28 08:49:16;;;;;;;30.40;26.15;;;;;;;-0.77;100.00;97531.97;5058516;28;20558;-70
2024/01/28 08:51:42;;;;;;;34.63;28.67;;;;;;;-0.76;100.00;97532.84;5054552;28;20029;-69
2024/01/28 08:54:07;;;;;;;35.53;29.38;;;;;;;-0.73;100.00;97541.38;5064086;28;20108;-70
2024/01/28 08:56:33;;;;;;;33.05;29.02;;;;;;;-0.71;100.00;97536.19;5054671;28;20035;-69
2024/01/28 08:58:58;;;;;;;31.65;24.92;;;;;;;-0.67;100.00;97530.09;5056368;28;20032;-69
2024/01/28 09:01:24;;;;;;;27.80;22.67;;;;;;;-0.66;100.00;97531.78;5054307;28;20082;-69
2024/01/28 09:03:49;;;;;;;29.20;23.95;;;;;;;-0.63;100.00;97526.56;5058335;28;20025;-69
2024/01/28 09:06:14;;;;;;;27.30;23.02;;;;;;;-0.65;100.00;97536.09;5066799;28;20028;-69
2024/01/28 09:08:40;;;;;;;28.08;22.42;;;;;;;-0.70;100.00;97531.88;5067446;28;20036;-69
2024/01/28 09:11:05;;;;;;;23.45;20.60;;;;;;;-0.70;100.00;97526.69;5054784;28;20698;-69
2024/01/28 09:13:30;;;;;;;26.60;20.85;;;;;;;-0.63;100.00;97525.72;5068504;28;20028;-69
2024/01/28 09:15:56;;;;;;;23.80;19.52;;;;;;;-0.33;100.00;97529.47;5065292;28;20037;-69
2024/01/28 09:18:21;;;;;;;23.55;17.92;;;;;;;0.08;100.00;97534.69;5059586;28;20103;-69
2024/01/28 09:20:47;;;;;;;16.95;13.75;;;;;;;0.42;100.00;97528.78;5059352;28;20078;-69
2024/01/28 09:23:12;;;;;;;16.75;14.70;;;;;;;0.75;100.00;97532.38;5070142;28;20623;-69
2024/01/28 09:25:38;;;;;;;15.07;12.50;;;;;;;1.13;100.00;97538.41;5073185;28;20039;-69
2024/01/28 09:28:03;;;;;;;12.18;9.30;;;;;;;1.54;100.00;97538.22;5069971;28;20020;-69
2024/01/28 09:30:29;;;;;;;11.75;8.68;;;;;;;1.97;100.00;97537.03;5067505;28;20021;-69
2024/01/28 09:32:54;;;;;;;8.20;7.47;;;;;;;2.33;100.00;97528.22;5063775;28;20032;-69
2024/01/28 09:35:20;;;;;;;7.13;6.43;;;;;;;2.63;100.00;97522.13;5070028;28;20112;-69
2024/01/28 09:37:46;;;;;;;7.28;6.50;;;;;;;3.04;100.00;97514.78;5071328;28;20036;-70
2024/01/28 09:40:12;;;;;;;6.88;6.30;;;;;;;3.63;100.00;97507.56;5075884;28;20043;-70
2024/01/28 09:42:53;;;;;;;4.88;4.47;;;;;;;4.12;100.00;97504.09;5068618;28;20131;-70
2024/01/28 09:45:18;;;;;;;5.28;4.63;;;;;;;4.65;100.00;97489.91;5071688;28;20417;-70
2024/01/28 09:47:44;;;;;;;4.55;4.18;;;;;;;5.10;100.00;97468.97;5068942;28;20374;-70
2024/01/28 09:50:11;;;;;;;5.63;5.07;;;;;;;5.58;100.00;97453.84;5071725;28;20107;-70
2024/01/28 09:52:37;;;;;;;4.95;4.53;;;;;;;6.01;100.00;97448.50;5064633;28;20650;-70
2024/01/28 09:55:04;;;;;;;6.90;6.20;;;;;;;6.43;100.00;97446.56;5064497;28;20021;-70
2024/01/28 09:57:30;;;;;;;6.93;6.25;;;;;;;6.55;100.00;97448.59;5074344;28;20367;-70
2024/01/28 09:59:56;;;;;;;7.40;6.70;;;;;;;6.62;100.00;97445.69;5072702;28;20044;-71
2024/01/28 10:02:22;;;;;;;9.63;8.63;;;;;;;6.75;100.00;97449.41;5070635;28;20123;-70
2024/01/28 10:04:48;;;;;;;9.65;7.25;;;;;;;6.80;100.00;97444.78;5069866;28;20037;-70
2024/01/28 10:07:15;;;;;;;3.15;2.90;;;;;;;6.71;100.00;97446.09;5068416;28;20032;-70
2024/01/28 10:09:40;;;;;;;2.38;2.28;;;;;;;6.43;100.00;97444.81;5068576;28;20043;-69
2024/01/28 10:12:09;;;;;;;3.00;2.78;;;;;;;6.36;100.00;97446.00;5072933;28;20028;-70
2024/01/28 10:14:34;;;;;;;7.38;6.78;;;;;;;6.40;100.00;97439.69;5073948;28;20074;-70
2024/01/28 10:16:59;;;;;;;4.60;4.30;;;;;;;6.41;100.00;97443.16;5068004;28;20063;-70
2024/01/28 10:19:25;;;;;;;3.83;3.53;;;;;;;6.49;100.00;97448.03;5077641;28;20028;-70
2024/01/28 10:21:51;;;;;;;4.30;4.00;;;;;;;6.53;100.00;97452.19;5075904;28;20025;-70
2024/01/28 10:24:17;;;;;;;4.53;3.90;;;;;;;6.62;100.00;97432.59;5072465;28;20027;-69
2024/01/28 10:26:42;;;;;;;3.70;3.40;;;;;;;6.77;100.00;97436.22;5070594;28;20598;-70
2024/01/28 10:29:09;;;;;;;5.32;3.80;;;;;;;6.86;100.00;97434.00;5066933;28;20081;-70
2024/01/28 10:31:36;;;;;;;6.07;4.15;;;;;;;7.17;100.00;97421.16;5069625;28;20043;-70
2024/01/28 10:34:02;;;;;;;2.78;2.58;;;;;;;7.39;100.00;97407.78;5065983;28;20041;-70
2024/01/28 10:36:27;;;;;;;6.60;6.00;;;;;;;7.65;100.00;97407.34;5068180;28;20596;-71
2024/01/28 10:39:00;;;;;;;4.63;4.22;;;;;;;7.80;100.00;97403.03;5067637;28;20036;-71
2024/01/28 10:41:25;;;;;;;4.78;3.20;;;;;;;7.86;100.00;97402.75;5068337;28;20041;-70
2024/01/28 10:44:01;;;;;;;2.30;2.20;;;;;;;8.01;100.00;97404.50;5067120;28;20082;-69
2024/01/28 10:46:41;;;;;;;7.15;1.80;;;;;;;8.11;100.00;97402.22;5072357;28;20033;-69
2024/01/28 10:49:09;;;;;;;2.35;1.67;;;;;;;8.16;100.00;97389.69;5071992;28;20107;-69
2024/01/28 10:51:39;;;;;;;1.67;1.58;;;;;;;8.23;100.00;97387.56;5068908;28;20154;-70
2024/01/28 10:54:09;;;;;;;1.83;1.73;;;;;;;8.31;100.00;97377.53;5064958;28;20496;-70
2024/01/28 10:56:37;;;;;;;1.75;1.50;;;;;;;8.46;100.00;97382.81;5068998;28;20032;-70
2024/01/28 10:59:02;;;;;;;1.80;1.70;;;;;;;8.60;100.00;97375.03;5063643;28;20041;-70
2024/01/28 11:01:30;;;;;;;1.90;1.80;;;;;;;8.68;100.00;97352.72;5070226;28;20012;-70
2024/01/28 11:03:56;;;;;;;3.03;2.72;;;;;;;8.97;100.00;97347.56;5070265;28;20549;-69
2024/01/28 11:06:24;;;;;;;3.08;2.88;;;;;;;9.05;100.00;97341.84;5071412;28;20028;-68
2024/01/28 11:08:53;;;;;;;1.60;1.60;;;;;;;8.98;100.00;97330.88;5068508;28;20060;-68
2024/01/28 11:11:19;;;;;;;1.88;1.77;;;;;;;9.04;100.00;97327.88;5065991;28;20047;-68
2024/01/28 11:13:44;;;;;;;6.00;1.70;;;;;;;9.07;100.00;97325.06;5071846;28;20032;-68